Terminal Aerodrome Forecast
Issued by NWS

Home | Current Version | Previous Version | Text Only | Print | Product List | Glossary On
Versions: 1 2 3 4 5 6 7 8 9 10 11 12 13 14 15 16
262
FTUS43 KAPX 071120
TAFMBL
TAF
KMBL 071120Z 0712/0812 16006KT P6SM OVC100 WS020/21036KT
     FM071800 21009KT P6SM OVC015
     FM080300 22004KT 5SM BR OVC010
     FM080800 VRB03KT 2SM BR OVC008
      AMD LTD TO CLD VIS AND WIND=

USA.gov is the U.S. government's official web portal to all federal, state and local government web resources and services.